createdAt,value
2019-04-07T00:34:27.625Z,4.00
2019-04-07T00:35:31.499Z,4.00
2019-04-07T00:37:27.372Z,4.00
2019-04-07T00:38:27.218Z,4.00
2019-04-07T00:39:27.207Z,4.00
2019-04-07T00:40:27.248Z,8.00
2019-04-07T00:41:27.532Z,8.00
2019-04-07T00:42:27.509Z,12.00
2019-04-07T00:43:27.506Z,12.00
2019-04-07T00:44:27.154Z,16.00
2019-04-07T00:45:27.143Z,20.00
2019-04-07T00:46:27.917Z,24.00
2019-04-07T00:47:27.123Z,28.00
2019-04-07T00:48:27.501Z,36.00
2019-04-07T00:49:27.098Z,44.00
2019-04-07T00:50:27.086Z,52.00
2019-04-07T00:51:27.643Z,60.00
2019-04-07T00:52:27.309Z,72.00
2019-04-07T00:53:27.056Z,80.00
2019-04-07T00:54:27.046Z,100.00
2019-04-07T00:55:27.037Z,120.00
2019-04-07T00:56:27.034Z,148.00
2019-04-07T00:57:27.517Z,180.00
2019-04-07T00:58:27.005Z,208.00
2019-04-07T00:59:27.061Z,244.00
2019-04-07T01:00:27.031Z,292.00
2019-04-07T01:01:27.141Z,328.00
2019-04-07T01:02:27.602Z,364.00
2019-04-07T01:03:27.580Z,396.00
2019-04-07T01:04:27.597Z,428.00
2019-04-07T01:05:35.706Z,464.00
2019-04-07T01:06:28.305Z,508.00
2019-04-07T01:07:26.911Z,568.00
2019-04-07T01:08:27.138Z,640.00
2019-04-07T01:09:27.681Z,724.00
2019-04-07T01:10:27.325Z,824.00
2019-04-07T01:11:26.863Z,932.00
2019-04-07T01:12:26.857Z,1024.00
2019-04-07T01:13:27.323Z,1128.00
2019-04-07T01:14:26.831Z,1248.00
2019-04-07T01:15:27.235Z,1404.00
2019-04-07T01:16:27.368Z,1696.00
2019-04-07T01:17:26.933Z,1940.00
2019-04-07T01:18:27.689Z,2048.00
2019-04-07T01:19:26.786Z,2016.00
2019-04-07T01:20:26.905Z,1948.00
2019-04-07T01:21:26.809Z,2116.00
2019-04-07T01:22:26.745Z,2428.00
2019-04-07T01:23:26.957Z,2536.00
2019-04-07T01:24:26.732Z,2656.00
2019-04-07T01:25:26.827Z,2952.00
2019-04-07T01:26:26.705Z,3108.00
2019-04-07T01:27:26.999Z,3264.00
2019-04-07T01:28:26.682Z,3428.00
2019-04-07T01:29:26.721Z,3648.00
2019-04-07T01:30:27.222Z,4020.00
2019-04-07T01:31:26.653Z,4760.00
2019-04-07T01:32:26.711Z,6276.00
2019-04-07T01:33:26.680Z,7088.00
2019-04-07T01:34:27.263Z,7040.00
2019-04-07T01:35:26.791Z,7320.00
2019-04-07T01:36:26.601Z,7396.00
2019-04-07T01:37:26.587Z,10168.00
2019-04-07T01:38:26.774Z,15388.00
2019-04-07T01:39:27.298Z,15364.00
2019-04-07T01:40:26.549Z,16384.00
2019-04-07T01:41:26.541Z,18016.00
2019-04-07T01:42:26.533Z,24096.00
2019-04-07T01:43:26.631Z,28192.00
2019-04-07T01:44:26.687Z,26336.00
2019-04-07T01:45:26.912Z,26432.00
2019-04-07T01:46:26.494Z,32032.00
2019-04-07T01:47:26.704Z,33344.00
2019-04-07T01:48:26.867Z,34080.00
2019-04-07T01:49:27.156Z,33408.00
2019-04-07T01:50:26.493Z,35328.00
2019-04-07T01:51:26.591Z,33696.00
2019-04-07T01:52:26.425Z,33600.00
2019-04-07T01:53:26.419Z,33568.00
2019-04-07T01:54:26.408Z,34400.00
2019-04-07T01:55:26.851Z,33856.00
2019-04-07T01:56:26.438Z,34688.00
2019-04-07T01:57:26.371Z,33632.00
2019-04-07T01:58:26.467Z,29440.00
2019-04-07T01:59:26.552Z,25408.00
2019-04-07T02:00:26.563Z,26880.00
2019-04-07T02:01:26.339Z,27680.00
2019-04-07T02:02:26.421Z,28352.00
2019-04-07T02:03:26.548Z,26400.00
2019-04-07T02:04:27.021Z,22784.00
2019-04-07T02:05:26.333Z,22688.00
2019-04-07T02:06:26.627Z,25664.00
2019-04-07T02:07:26.269Z,26720.00
2019-04-07T02:08:26.413Z,26048.00
2019-04-07T02:09:26.472Z,26336.00
2019-04-07T02:10:26.235Z,23104.00
2019-04-07T02:11:26.436Z,21952.00
2019-04-07T02:12:26.824Z,20704.00
2019-04-07T02:13:26.441Z,19392.00
2019-04-07T02:14:26.701Z,17016.00
2019-04-07T02:15:26.767Z,16188.00
2019-04-07T02:16:26.866Z,15648.00
2019-04-07T02:17:26.372Z,15364.00
2019-04-07T02:18:26.182Z,14500.00
2019-04-07T02:19:26.322Z,14044.00
2019-04-07T02:20:26.688Z,14640.00
2019-04-07T02:21:26.120Z,15360.00
2019-04-07T02:22:26.455Z,14636.00
2019-04-07T02:23:26.565Z,14004.00
2019-04-07T02:24:26.703Z,14428.00
2019-04-07T02:25:26.263Z,15116.00
2019-04-07T02:26:26.773Z,16368.00
2019-04-07T02:27:26.064Z,17916.00
2019-04-07T02:28:26.418Z,17956.00
2019-04-07T02:29:26.042Z,16308.00
2019-04-07T02:30:26.031Z,14752.00
2019-04-07T02:31:26.024Z,13836.00
2019-04-07T02:32:27.604Z,13260.00
2019-04-07T02:33:26.001Z,13312.00
2019-04-07T02:34:25.998Z,13400.00
2019-04-07T02:35:25.992Z,13376.00
2019-04-07T02:36:30.148Z,13840.00
2019-04-07T02:37:26.624Z,14164.00
2019-04-07T02:38:26.029Z,14228.00
2019-04-07T02:39:25.938Z,14384.00
2019-04-07T02:40:26.757Z,15484.00
2019-04-07T02:41:26.113Z,16748.00
2019-04-07T02:42:26.580Z,16656.00
2019-04-07T02:43:25.945Z,16120.00
2019-04-07T02:44:25.889Z,15832.00
2019-04-07T02:45:25.880Z,16048.00
2019-04-07T02:46:26.972Z,15644.00
2019-04-07T02:47:25.851Z,15816.00
2019-04-07T02:48:26.553Z,16108.00
2019-04-07T02:49:26.304Z,16320.00
2019-04-07T02:50:26.207Z,15780.00
2019-04-07T02:51:26.246Z,15292.00
2019-04-07T02:52:25.800Z,14868.00
2019-04-07T02:53:25.791Z,15544.00
2019-04-07T02:54:25.781Z,16432.00
2019-04-07T02:55:26.774Z,17364.00
2019-04-07T02:56:25.763Z,18304.00
2019-04-07T02:57:26.843Z,19360.00
2019-04-07T02:58:25.747Z,19776.00
2019-04-07T02:59:25.755Z,20096.00
2019-04-07T03:00:25.718Z,21504.00
2019-04-07T03:01:26.473Z,23264.00
2019-04-07T03:02:25.694Z,23424.00
2019-04-07T03:03:25.710Z,24096.00
2019-04-07T03:04:26.315Z,25440.00
2019-04-07T03:05:26.685Z,25792.00
2019-04-07T03:06:37.475Z,28288.00
2019-04-07T03:07:50.557Z,28608.00
2019-04-07T03:08:50.658Z,28256.00
2019-04-07T03:09:51.617Z,27104.00
2019-04-07T03:10:51.205Z,24576.00
2019-04-07T03:11:50.990Z,19196.00
2019-04-07T03:12:51.212Z,14600.00
2019-04-07T03:13:50.491Z,14360.00
2019-04-07T03:14:50.700Z,13364.00
2019-04-07T03:15:50.533Z,12768.00
2019-04-07T03:16:51.472Z,12764.00
2019-04-07T03:17:50.449Z,12356.00
2019-04-07T03:18:50.761Z,11884.00
2019-04-07T03:19:50.473Z,12264.00
2019-04-07T03:20:50.426Z,12760.00
2019-04-07T03:21:50.403Z,13332.00
2019-04-07T03:22:50.767Z,14404.00
2019-04-07T03:23:51.382Z,14916.00
2019-04-07T03:24:50.479Z,13076.00
2019-04-07T03:25:50.364Z,11980.00
2019-04-07T03:26:51.424Z,11196.00
2019-04-07T03:27:51.410Z,10568.00
2019-04-07T03:28:50.348Z,10140.00
2019-04-07T03:29:50.324Z,9848.00
2019-04-07T03:30:51.904Z,9584.00
2019-04-07T03:31:51.395Z,9424.00
2019-04-07T03:32:52.947Z,9308.00
2019-04-07T03:33:51.933Z,9228.00
2019-04-07T03:34:51.989Z,9240.00
2019-04-07T03:35:53.115Z,9152.00
2019-04-07T03:37:17.277Z,9100.00
2019-04-07T03:37:51.579Z,9248.00
2019-04-07T03:38:50.385Z,9356.00
2019-04-07T03:39:50.216Z,9364.00
2019-04-07T03:40:50.308Z,9424.00
2019-04-07T03:41:51.995Z,9500.00
2019-04-07T03:42:51.006Z,9540.00
2019-04-07T03:43:50.893Z,9596.00
2019-04-07T03:44:50.916Z,9708.00
2019-04-07T03:45:50.205Z,9804.00
2019-04-07T03:46:50.141Z,9876.00
2019-04-07T03:47:50.467Z,9940.00
2019-04-07T03:48:50.807Z,9948.00
2019-04-07T03:49:50.863Z,10016.00
2019-04-07T03:50:50.831Z,10024.00
2019-04-07T03:51:50.087Z,10020.00
2019-04-07T03:52:51.047Z,10072.00
2019-04-07T03:53:50.549Z,10144.00
2019-04-07T03:54:50.859Z,10252.00
2019-04-07T03:55:50.042Z,10300.00
2019-04-07T03:56:50.077Z,10476.00
2019-04-07T03:57:50.675Z,10964.00
2019-04-07T03:58:50.737Z,11188.00
2019-04-07T03:59:50.031Z,11676.00
2019-04-07T04:00:50.304Z,12028.00
2019-04-07T04:01:49.987Z,12300.00
2019-04-07T04:02:50.573Z,11992.00
2019-04-07T04:03:49.977Z,11564.00
2019-04-07T04:04:50.140Z,11308.00
2019-04-07T04:05:52.172Z,11240.00
2019-04-07T04:06:49.927Z,11372.00
2019-04-07T04:07:49.915Z,11492.00
2019-04-07T04:08:50.958Z,11588.00
2019-04-07T04:09:49.891Z,11472.00
2019-04-07T04:10:50.183Z,11788.00
2019-04-07T04:11:49.873Z,12312.00
2019-04-07T04:12:50.256Z,11964.00
2019-04-07T04:13:50.923Z,12216.00
2019-04-07T04:14:50.812Z,12156.00
2019-04-07T04:15:50.110Z,12648.00
2019-04-07T04:16:50.746Z,13060.00
2019-04-07T04:17:49.808Z,12784.00
2019-04-07T04:18:50.361Z,12608.00
2019-04-07T04:19:49.788Z,12312.00
2019-04-07T04:20:49.875Z,12592.00
2019-04-07T04:21:49.767Z,12916.00
2019-04-07T04:22:50.640Z,13192.00
2019-04-07T04:23:49.747Z,13388.00
2019-04-07T04:24:49.974Z,13556.00
2019-04-07T04:25:49.729Z,13384.00
2019-04-07T04:26:50.120Z,13440.00
2019-04-07T04:27:50.656Z,13420.00
2019-04-07T04:28:49.697Z,13404.00
2019-04-07T04:29:51.942Z,13312.00
2019-04-07T04:30:50.680Z,13352.00
2019-04-07T04:31:49.665Z,13396.00
2019-04-07T04:32:49.721Z,13448.00
2019-04-07T04:33:49.642Z,13412.00
2019-04-07T04:34:49.733Z,13280.00
2019-04-07T04:35:49.646Z,13096.00
2019-04-07T04:36:50.268Z,12904.00
2019-04-07T04:37:52.358Z,12612.00
2019-04-07T04:38:50.265Z,12364.00
2019-04-07T04:39:49.587Z,12212.00
2019-04-07T04:40:50.462Z,12152.00
2019-04-07T04:41:49.566Z,11996.00
2019-04-07T04:42:50.358Z,11712.00
2019-04-07T04:43:49.547Z,11624.00
2019-04-07T04:44:49.846Z,11668.00
2019-04-07T04:45:50.452Z,11752.00
2019-04-07T04:46:49.513Z,11568.00
2019-04-07T04:47:49.514Z,11480.00
2019-04-07T04:48:49.593Z,11416.00
2019-04-07T04:49:50.297Z,11496.00
2019-04-07T04:50:50.410Z,11484.00
2019-04-07T04:51:50.070Z,11396.00
2019-04-07T04:52:49.448Z,11208.00
2019-04-07T04:53:50.287Z,11092.00
2019-04-07T04:54:49.692Z,10968.00
2019-04-07T04:55:49.529Z,10948.00
2019-04-07T04:56:50.103Z,10888.00
2019-04-07T04:57:49.843Z,10764.00
2019-04-07T04:58:50.399Z,10716.00
2019-04-07T04:59:49.375Z,10596.00
2019-04-07T05:00:50.547Z,10592.00
2019-04-07T05:01:49.944Z,10604.00
2019-04-07T05:02:49.591Z,10756.00
2019-04-07T05:03:49.450Z,10884.00
2019-04-07T05:04:49.707Z,11056.00
2019-04-07T05:05:49.390Z,11228.00
2019-04-07T05:06:49.301Z,11320.00
2019-04-07T05:07:57.683Z,11388.00
2019-04-07T05:09:14.590Z,11460.00
2019-04-07T05:10:14.195Z,11432.00
2019-04-07T05:11:14.668Z,11360.00
2019-04-07T05:12:14.165Z,10928.00
2019-04-07T05:13:14.155Z,10764.00
2019-04-07T05:14:14.243Z,10628.00
2019-04-07T05:15:14.737Z,10388.00
2019-04-07T05:16:14.129Z,10404.00
2019-04-07T05:17:14.128Z,10588.00
2019-04-07T05:18:14.310Z,11068.00
2019-04-07T05:19:14.292Z,11312.00
2019-04-07T05:20:14.236Z,11396.00
2019-04-07T05:21:14.073Z,11396.00
2019-04-07T05:22:14.510Z,11424.00
2019-04-07T05:23:14.131Z,11620.00
2019-04-07T05:24:14.653Z,11892.00
2019-04-07T05:25:14.056Z,12224.00
2019-04-07T05:26:14.710Z,12424.00
2019-04-07T05:27:14.017Z,12608.00
2019-04-07T05:28:14.006Z,12752.00
2019-04-07T05:29:14.625Z,12808.00
2019-04-07T05:30:13.984Z,12792.00
2019-04-07T05:31:14.498Z,12784.00
2019-04-07T05:32:14.562Z,12776.00
2019-04-07T05:33:14.139Z,12808.00
2019-04-07T05:34:17.229Z,12740.00
2019-04-07T05:35:14.281Z,12672.00
2019-04-07T05:36:14.740Z,12548.00
2019-04-07T05:37:14.089Z,12480.00
2019-04-07T05:38:14.573Z,12440.00
2019-04-07T05:39:13.894Z,12408.00
2019-04-07T05:40:14.035Z,12384.00
2019-04-07T05:41:14.143Z,12384.00
2019-04-07T05:42:14.654Z,12408.00
2019-04-07T05:43:13.856Z,12432.00
2019-04-07T05:44:13.946Z,12424.00
2019-04-07T05:45:13.834Z,12408.00
2019-04-07T05:46:13.913Z,12368.00
2019-04-07T05:47:15.254Z,12308.00
2019-04-07T05:48:17.323Z,12172.00
2019-04-07T05:49:16.226Z,12064.00
2019-04-07T05:50:14.307Z,11924.00
2019-04-07T05:51:14.347Z,11756.00
2019-04-07T05:52:13.956Z,11628.00
2019-04-07T05:53:14.791Z,11460.00
2019-04-07T05:54:16.912Z,11312.00
2019-04-07T05:55:14.219Z,11128.00
2019-04-07T05:56:13.720Z,10932.00
2019-04-07T05:57:13.709Z,10704.00
2019-04-07T05:58:15.687Z,10488.00
2019-04-07T05:59:14.648Z,10340.00
2019-04-07T06:00:16.343Z,10212.00
2019-04-07T06:01:14.052Z,10084.00
2019-04-07T06:02:14.366Z,9944.00
2019-04-07T06:03:13.647Z,9764.00
2019-04-07T06:04:17.506Z,9620.00
2019-04-07T06:05:16.285Z,9436.00
2019-04-07T06:06:13.665Z,9256.00
2019-04-07T06:07:13.824Z,9028.00
2019-04-07T06:08:24.637Z,8796.00
2019-04-07T06:09:38.398Z,8596.00
2019-04-07T06:10:38.761Z,8592.00
2019-04-07T06:11:38.820Z,8512.00
2019-04-07T06:12:40.339Z,8412.00
2019-04-07T06:13:39.075Z,8268.00
2019-04-07T06:14:38.885Z,8076.00
2019-04-07T06:15:38.337Z,7944.00
2019-04-07T06:16:38.766Z,7856.00
2019-04-07T06:17:39.100Z,7720.00
2019-04-07T06:18:38.302Z,7620.00
2019-04-07T06:19:41.090Z,7452.00
2019-04-07T06:20:38.280Z,7204.00
2019-04-07T06:21:38.659Z,7096.00
2019-04-07T06:22:38.804Z,7088.00
2019-04-07T06:23:38.656Z,7144.00
2019-04-07T06:24:38.430Z,7108.00
2019-04-07T06:25:41.717Z,7100.00
2019-04-07T06:26:41.621Z,7068.00
2019-04-07T06:27:38.430Z,7068.00
2019-04-07T06:28:38.199Z,7108.00
2019-04-07T06:29:38.903Z,7156.00
2019-04-07T06:30:38.175Z,7284.00
2019-04-07T06:31:38.171Z,7384.00
2019-04-07T06:32:39.489Z,7468.00
2019-04-07T06:33:39.349Z,7528.00
2019-04-07T06:34:41.095Z,7640.00
2019-04-07T06:35:38.148Z,7760.00
2019-04-07T06:36:38.680Z,7828.00
2019-04-07T06:37:38.660Z,7832.00
2019-04-07T06:38:42.553Z,7784.00
2019-04-07T06:40:03.558Z,7660.00
2019-04-07T06:41:03.136Z,7568.00
2019-04-07T06:42:03.527Z,7468.00
2019-04-07T06:43:05.280Z,7376.00
2019-04-07T06:44:12.739Z,7300.00
2019-04-07T06:45:28.316Z,7232.00
2019-04-07T06:46:28.670Z,7224.00
2019-04-07T06:47:30.816Z,7208.00
2019-04-07T06:48:27.728Z,7184.00
2019-04-07T06:49:29.448Z,7168.00
2019-04-07T06:50:28.069Z,7300.00
2019-04-07T06:51:30.926Z,7436.00
2019-04-07T06:52:27.983Z,7544.00
2019-04-07T06:53:27.995Z,7636.00
2019-04-07T06:54:27.664Z,7720.00
2019-04-07T06:55:28.918Z,7732.00
2019-04-07T06:56:32.177Z,7732.00
2019-04-07T06:57:28.299Z,7736.00
2019-04-07T06:58:27.621Z,7740.00
2019-04-07T06:59:28.298Z,7760.00
2019-04-07T07:00:28.037Z,7764.00
2019-04-07T07:01:27.640Z,7756.00
2019-04-07T07:02:29.525Z,7724.00
2019-04-07T07:03:28.244Z,7752.00
2019-04-07T07:04:27.676Z,7780.00
2019-04-07T07:05:27.900Z,7840.00
2019-04-07T07:06:28.462Z,7872.00
2019-04-07T07:07:28.139Z,7884.00
2019-04-07T07:08:28.328Z,7884.00
2019-04-07T07:09:27.854Z,7884.00
2019-04-07T07:10:30.347Z,7896.00
2019-04-07T07:11:52.296Z,7892.00
2019-04-07T07:12:52.332Z,7908.00
2019-04-07T07:13:52.269Z,7976.00
2019-04-07T07:14:52.839Z,8108.00
2019-04-07T07:15:52.895Z,8472.00
2019-04-07T07:16:52.244Z,8856.00
2019-04-07T07:17:54.896Z,9108.00
2019-04-07T07:18:54.713Z,9368.00
2019-04-07T07:19:55.661Z,9616.00
2019-04-07T07:20:52.687Z,9864.00
2019-04-07T07:21:55.742Z,10056.00
2019-04-07T07:22:52.666Z,10196.00
2019-04-07T07:23:52.549Z,10248.00
2019-04-07T07:24:56.453Z,10228.00
2019-04-07T07:26:25.358Z,10152.00
2019-04-07T07:27:25.821Z,10068.00
2019-04-07T07:28:25.095Z,9888.00
2019-04-07T07:29:26.609Z,9704.00
2019-04-07T07:30:28.318Z,9540.00
2019-04-07T07:31:26.343Z,9388.00
2019-04-07T07:32:25.057Z,9268.00
2019-04-07T07:33:25.044Z,9120.00
2019-04-07T07:34:25.037Z,9012.00
2019-04-07T07:35:25.606Z,8908.00
2019-04-07T07:36:25.016Z,8764.00
2019-04-07T07:37:26.155Z,8636.00
2019-04-07T07:38:29.713Z,8524.00
2019-04-07T07:39:25.142Z,8400.00
2019-04-07T07:40:25.421Z,8312.00
2019-04-07T07:41:25.351Z,8224.00
2019-04-07T07:42:25.650Z,8124.00
2019-04-07T07:43:27.924Z,8032.00
2019-04-07T07:44:24.928Z,7944.00
2019-04-07T07:45:25.043Z,7844.00
2019-04-07T07:46:24.909Z,7744.00
2019-04-07T07:47:25.387Z,7644.00
2019-04-07T07:48:27.955Z,7540.00
2019-04-07T07:49:24.877Z,7440.00
2019-04-07T07:50:25.409Z,7340.00
2019-04-07T07:51:24.905Z,7236.00
2019-04-07T07:52:25.493Z,7132.00
2019-04-07T07:53:28.101Z,7020.00
2019-04-07T07:54:27.729Z,6932.00
2019-04-07T07:55:25.290Z,6836.00
2019-04-07T07:56:25.559Z,6752.00
2019-04-07T07:57:24.972Z,6672.00
2019-04-07T07:58:27.938Z,6568.00
2019-04-07T07:59:52.746Z,6536.00
2019-04-07T08:00:52.684Z,6512.00
2019-04-07T08:01:53.407Z,6520.00
2019-04-07T08:02:53.569Z,6560.00
2019-04-07T08:03:55.689Z,6608.00
2019-04-07T08:04:56.541Z,6652.00
2019-04-07T08:05:53.327Z,6660.00
2019-04-07T08:06:53.361Z,6712.00
2019-04-07T08:07:52.606Z,6804.00
2019-04-07T08:08:52.652Z,6868.00
2019-04-07T08:09:54.386Z,6936.00
2019-04-07T08:10:56.162Z,7028.00
2019-04-07T08:11:52.789Z,7124.00
2019-04-07T08:12:53.165Z,7280.00
2019-04-07T08:13:52.575Z,7480.00
2019-04-07T08:14:55.561Z,7652.00
2019-04-07T08:15:54.630Z,7788.00
2019-04-07T08:16:53.112Z,7944.00
2019-04-07T08:17:53.133Z,8064.00
2019-04-07T08:18:52.500Z,8200.00
2019-04-07T08:19:52.483Z,8360.00
2019-04-07T08:20:53.295Z,8452.00
2019-04-07T08:21:53.004Z,8540.00
2019-04-07T08:22:52.451Z,8708.00
2019-04-07T08:23:52.537Z,8812.00
2019-04-07T08:24:52.426Z,8844.00
2019-04-07T08:25:54.470Z,8992.00
2019-04-07T08:26:56.282Z,9152.00
2019-04-07T08:27:53.094Z,9284.00
2019-04-07T08:28:52.597Z,9396.00
2019-04-07T08:29:52.672Z,9484.00
2019-04-07T08:30:52.368Z,9572.00
2019-04-07T08:31:55.458Z,9600.00
2019-04-07T08:32:52.341Z,9524.00
2019-04-07T08:33:52.778Z,9468.00
2019-04-07T08:34:52.325Z,9360.00
2019-04-07T08:35:54.883Z,9204.00
2019-04-07T08:36:53.063Z,9016.00
2019-04-07T08:37:52.286Z,8832.00
2019-04-07T08:38:55.079Z,8632.00
2019-04-07T08:39:52.593Z,8428.00
2019-04-07T08:40:54.282Z,8260.00
2019-04-07T08:41:52.898Z,8124.00
2019-04-07T08:42:52.236Z,8052.00
2019-04-07T08:43:55.441Z,7956.00
2019-04-07T08:44:52.296Z,7944.00
2019-04-07T08:46:25.183Z,7896.00
2019-04-07T08:47:25.809Z,7896.00
2019-04-07T08:48:25.616Z,7904.00
2019-04-07T08:49:25.622Z,7956.00
2019-04-07T08:50:27.699Z,7980.00
2019-04-07T08:51:29.342Z,8060.00
2019-04-07T08:52:25.114Z,8084.00
2019-04-07T08:53:25.151Z,8104.00
2019-04-07T08:54:25.091Z,8140.00
2019-04-07T08:55:25.889Z,8216.00
2019-04-07T08:56:26.645Z,8340.00
2019-04-07T08:57:27.208Z,8384.00
2019-04-07T08:58:28.577Z,8448.00
2019-04-07T08:59:25.039Z,8428.00
2019-04-07T09:00:25.023Z,8436.00
2019-04-07T09:01:28.446Z,8324.00
2019-04-07T09:02:26.890Z,8220.00
2019-04-07T09:03:24.997Z,8132.00
2019-04-07T09:04:25.275Z,8080.00
2019-04-07T09:05:29.023Z,8060.00
2019-04-07T09:06:27.297Z,8092.00
2019-04-07T09:07:24.959Z,8176.00
2019-04-07T09:08:24.945Z,8288.00
2019-04-07T09:09:58.717Z,8504.00
2019-04-07T09:10:58.228Z,8648.00
2019-04-07T09:11:57.880Z,8780.00
2019-04-07T09:13:00.646Z,8896.00
2019-04-07T09:13:58.182Z,8944.00
2019-04-07T09:14:58.317Z,8908.00
2019-04-07T09:15:57.990Z,8804.00
2019-04-07T09:16:58.236Z,8632.00
2019-04-07T09:17:57.819Z,8412.00
2019-04-07T09:19:03.792Z,8184.00
2019-04-07T09:19:59.795Z,7992.00
2019-04-07T09:20:57.785Z,7880.00
2019-04-07T09:21:57.873Z,7852.00
2019-04-07T09:22:58.239Z,7900.00
2019-04-07T09:23:57.799Z,7996.00
2019-04-07T09:24:57.902Z,8116.00
2019-04-07T09:25:58.367Z,8196.00
2019-04-07T09:26:57.853Z,8276.00
2019-04-07T09:27:58.358Z,8364.00
2019-04-07T09:28:57.697Z,8444.00
2019-04-07T09:29:58.185Z,8476.00
2019-04-07T09:31:00.293Z,8436.00
2019-04-07T09:31:57.668Z,8348.00
2019-04-07T09:32:59.597Z,8268.00
2019-04-07T09:33:57.643Z,8196.00
2019-04-07T09:34:57.637Z,8136.00
2019-04-07T09:35:59.252Z,8084.00
2019-04-07T09:36:57.617Z,8036.00
2019-04-07T09:38:00.458Z,7972.00
2019-04-07T09:39:01.489Z,7896.00
2019-04-07T09:40:01.166Z,7812.00
2019-04-07T09:40:58.435Z,7716.00
2019-04-07T09:41:57.561Z,7608.00
2019-04-07T09:43:00.232Z,7516.00
2019-04-07T09:44:01.151Z,7416.00
2019-04-07T09:44:57.542Z,7308.00
2019-04-07T09:45:58.329Z,7212.00
2019-04-07T09:46:57.577Z,7112.00
2019-04-07T09:47:57.626Z,7012.00
2019-04-07T09:48:57.685Z,6908.00
2019-04-07T09:49:58.405Z,6800.00
2019-04-07T09:51:02.344Z,6696.00
2019-04-07T09:52:22.274Z,6572.00
2019-04-07T09:53:22.965Z,6488.00
2019-04-07T09:54:23.334Z,6404.00
2019-04-07T09:55:24.356Z,6304.00
2019-04-07T09:56:22.791Z,6180.00
2019-04-07T09:57:22.223Z,6020.00
2019-04-07T09:58:22.204Z,5852.00
2019-04-07T09:59:22.885Z,5760.00
2019-04-07T10:00:23.954Z,5776.00
2019-04-07T10:01:22.286Z,5880.00
2019-04-07T10:02:22.177Z,6012.00
2019-04-07T10:03:22.150Z,6136.00
2019-04-07T10:04:22.142Z,6212.00
2019-04-07T10:05:22.134Z,6232.00
2019-04-07T10:06:22.130Z,6196.00
2019-04-07T10:07:22.938Z,6132.00
2019-04-07T10:08:22.101Z,6024.00
2019-04-07T10:09:22.957Z,5900.00
2019-04-07T10:10:22.666Z,5788.00
2019-04-07T10:11:22.115Z,5704.00
2019-04-07T10:12:22.062Z,5656.00
2019-04-07T10:13:22.785Z,5632.00
2019-04-07T10:14:22.039Z,5648.00
2019-04-07T10:15:22.418Z,5668.00
2019-04-07T10:16:22.228Z,5692.00
2019-04-07T10:17:22.239Z,5716.00
2019-04-07T10:18:22.877Z,5720.00
2019-04-07T10:19:22.089Z,5688.00
2019-04-07T10:20:23.195Z,5608.00
2019-04-07T10:21:24.223Z,5480.00
2019-04-07T10:22:21.960Z,5340.00
2019-04-07T10:23:22.012Z,5220.00
2019-04-07T10:24:21.933Z,5112.00
2019-04-07T10:25:24.815Z,5024.00
2019-04-07T10:26:21.916Z,4952.00
2019-04-07T10:27:22.400Z,4880.00
2019-04-07T10:28:22.377Z,4812.00
2019-04-07T10:29:21.974Z,4756.00
2019-04-07T10:30:22.560Z,4696.00
2019-04-07T10:31:22.454Z,4636.00
2019-04-07T10:32:24.722Z,4564.00
2019-04-07T10:33:22.528Z,4484.00
2019-04-07T10:34:22.524Z,4372.00
2019-04-07T10:35:22.436Z,4248.00
2019-04-07T10:36:22.802Z,4120.00
2019-04-07T10:37:21.962Z,4008.00
2019-04-07T10:38:21.804Z,3912.00
2019-04-07T10:39:21.784Z,3824.00
2019-04-07T10:40:22.515Z,3756.00
2019-04-07T10:41:21.810Z,3680.00
2019-04-07T10:42:21.928Z,3604.00
2019-04-07T10:43:21.749Z,3524.00
2019-04-07T10:44:21.728Z,3468.00
2019-04-07T10:45:21.798Z,3448.00
2019-04-07T10:46:22.588Z,3456.00
2019-04-07T10:47:21.853Z,3468.00
2019-04-07T10:48:24.347Z,3476.00
2019-04-07T10:49:21.681Z,3440.00
2019-04-07T10:50:22.183Z,3388.00
2019-04-07T10:51:21.686Z,3388.00
2019-04-07T10:52:21.653Z,3464.00
2019-04-07T10:53:49.670Z,3520.00
2019-04-07T10:54:49.549Z,3512.00
2019-04-07T10:55:49.701Z,3488.00
2019-04-07T10:56:49.813Z,3452.00
2019-04-07T10:58:23.045Z,3404.00
2019-04-07T10:59:22.532Z,3420.00
2019-04-07T11:00:22.487Z,3440.00
2019-04-07T11:01:22.459Z,3432.00
2019-04-07T11:02:56.950Z,3392.00
2019-04-07T11:03:56.410Z,3412.00
2019-04-07T11:04:56.225Z,3496.00
2019-04-07T11:05:55.404Z,3628.00
2019-04-07T11:07:29.249Z,3924.00
2019-04-07T11:08:28.784Z,4104.00
2019-04-07T11:09:28.417Z,4256.00
2019-04-07T11:10:34.290Z,4392.00
2019-04-07T11:12:01.887Z,4372.00
2019-04-07T11:13:01.795Z,4244.00
2019-04-07T11:14:01.268Z,4116.00
2019-04-07T11:15:01.257Z,4012.00
2019-04-07T11:16:34.314Z,3880.00
2019-04-07T11:17:34.207Z,3808.00
2019-04-07T11:18:34.718Z,3788.00
2019-04-07T11:19:34.412Z,3812.00
2019-04-07T11:21:07.147Z,3912.00
2019-04-07T11:22:07.835Z,4016.00
2019-04-07T11:23:07.369Z,4124.00
2019-04-07T11:24:07.128Z,4172.00
2019-04-07T11:25:40.085Z,4128.00
2019-04-07T11:26:40.378Z,4076.00
2019-04-07T11:27:40.869Z,4036.00
2019-04-07T11:28:40.099Z,4000.00
2019-04-07T11:30:08.151Z,3956.00
2019-04-07T11:31:08.109Z,3936.00
2019-04-07T11:32:08.665Z,3924.00
2019-04-07T11:33:07.979Z,3912.00
2019-04-07T11:34:41.391Z,3908.00
2019-04-07T11:35:41.393Z,3900.00
2019-04-07T11:36:40.872Z,3880.00
2019-04-07T11:37:40.858Z,3848.00
2019-04-07T11:39:09.073Z,3764.00
2019-04-07T11:40:08.751Z,3704.00
2019-04-07T11:41:08.743Z,3672.00
2019-04-07T11:42:08.867Z,3664.00
2019-04-07T11:43:36.980Z,3668.00
2019-04-07T11:44:36.688Z,3668.00
2019-04-07T11:45:36.625Z,3672.00
2019-04-07T11:46:36.618Z,3676.00
2019-04-07T11:48:10.062Z,3692.00
2019-04-07T11:49:11.544Z,3680.00
2019-04-07T11:50:10.483Z,3680.00
2019-04-07T11:51:09.661Z,3676.00
2019-04-07T11:52:12.549Z,3660.00
2019-04-07T11:53:09.526Z,3624.00
2019-04-07T11:54:09.789Z,3588.00
2019-04-07T11:55:10.250Z,3552.00
2019-04-07T11:56:11.287Z,3496.00
2019-04-07T11:57:09.834Z,3416.00
2019-04-07T11:58:14.812Z,3316.00
2019-04-07T11:59:34.930Z,3168.00
2019-04-07T12:00:35.764Z,3048.00
2019-04-07T12:01:34.935Z,2916.00
2019-04-07T12:02:34.246Z,2780.00
2019-04-07T12:03:34.346Z,2668.00
2019-04-07T12:04:34.549Z,2564.00
2019-04-07T12:05:34.213Z,2472.00
2019-04-07T12:06:34.277Z,2384.00
2019-04-07T12:07:34.513Z,2316.00
2019-04-07T12:08:36.319Z,2248.00
2019-04-07T12:09:34.836Z,2184.00
2019-04-07T12:10:34.407Z,2124.00
2019-04-07T12:11:34.372Z,2080.00
2019-04-07T12:12:34.346Z,2044.00
2019-04-07T12:13:34.888Z,2016.00
2019-04-07T12:14:34.113Z,2000.00
2019-04-07T12:15:34.730Z,1980.00
2019-04-07T12:16:35.017Z,1944.00
2019-04-07T12:17:34.766Z,1900.00
2019-04-07T12:18:34.190Z,1848.00
2019-04-07T12:19:34.119Z,1792.00
2019-04-07T12:20:35.307Z,1744.00
2019-04-07T12:21:36.966Z,1704.00
2019-04-07T12:22:34.137Z,1672.00
2019-04-07T12:23:37.047Z,1640.00
2019-04-07T12:24:34.753Z,1620.00
2019-04-07T12:25:34.665Z,1612.00
2019-04-07T12:26:37.304Z,1608.00
2019-04-07T12:28:03.903Z,1600.00
2019-04-07T12:29:04.021Z,1588.00
2019-04-07T12:30:04.360Z,1576.00
2019-04-07T12:31:04.040Z,1568.00
2019-04-07T12:32:32.507Z,1580.00
2019-04-07T12:33:31.774Z,1588.00
2019-04-07T12:34:32.194Z,1604.00
2019-04-07T12:35:32.975Z,1624.00
2019-04-07T12:36:32.161Z,1648.00
2019-04-07T12:37:31.840Z,1688.00
2019-04-07T12:38:31.887Z,1728.00
2019-04-07T12:39:34.150Z,1756.00
2019-04-07T12:40:32.282Z,1808.00
2019-04-07T12:41:32.231Z,1852.00
2019-04-07T12:42:31.773Z,1908.00
2019-04-07T12:43:31.673Z,1956.00
2019-04-07T12:44:31.646Z,2048.00
2019-04-07T12:45:35.820Z,2160.00
2019-04-07T12:46:31.623Z,2248.00
2019-04-07T12:47:32.030Z,2296.00
2019-04-07T12:48:32.090Z,2304.00